Portada
METAR-TAF:

METAR-TAF

Aeroports :

Nadi, Fiji

latitud: 17-45S, longitud: 177-27E, altitud: 13 m

Observació

L'informe es va fer fa 1 hora i 11 minuts, a les 01:00 UTC
Vent 15 kt del Nord-Oest
Temperatura 29°C
Humitat 66%
Pressió 1013 hPa
Visibilitat 10 km o més
Núvols disperses a una alçada de 3000 ft

METAR: NFFN 160100Z 31015KT 9999 SCT030 29/22 Q1013 NOSIG

Hora: 15:11 (02:11 UTC)

Pronòstic

L'informe es va fer fa 3 hores i 2 minuts, a les 23:09 UTC
Pronòstic vàlid del 16 a les 00 UTC al 16 a les 24 UTC
Vent 12 kt del Oest/Nord-Oest
Visibilitat 10 km o més
Núvols disperses a una alçada de 2000 ft
Evolucionant progressivament
l' 16 a les 07 UTC al 16 a les 09 UTC
Vent 6 kt del Est/Sud-Est
Evolucionant progressivament
l' 16 a les 22 UTC al 16 a les 24 UTC
Vent 12 kt del Oest/Nord-Oest

TAF: NFFN 152309Z 1600/1624 30012KT 9999 SCT020 BECMG 1607/1609 12006KT BECMG 1622/1624 30012KT

Observacions i pronòstics meteorològics de més de 4000 aeroports (METAR i TAF).

Les estacions disponibles són els punts grocs i vermells al mapa.

Posi el ratolí al punt desitjat per veure el nom de l'estació.

Feu clic per veure les observacions i els pronòstics meteorològics.

Per canviar el mapa: feu clic els botons verds amb una creu de color negre per apropar; al botó verd amb un guió per allunyar la imatge; o en les fletxes verdes per a mapes adjacents.


METAR-TAF: